sensor_id;sensor_type;location;lat;lon;timestamp;temperature;humidity
9095;DHT22;4583;49.796;9.902;2022-12-29T15:55:37;12.80;95.40
9095;DHT22;4583;49.796;9.902;2022-12-29T16:05:40;11.90;95.80
9095;DHT22;4583;49.796;9.902;2022-12-29T16:15:45;11.50;96.40
9095;DHT22;4583;49.796;9.902;2022-12-29T16:25:47;11.20;96.90
9095;DHT22;4583;49.796;9.902;2022-12-29T16:35:49;11.10;97.40
9095;DHT22;4583;49.796;9.902;2022-12-29T16:55:53;11.00;97.90
9095;DHT22;4583;49.796;9.902;2022-12-29T17:05:56;10.80;98.00
9095;DHT22;4583;49.796;9.902;2022-12-29T17:15:58;10.80;98.40
9095;DHT22;4583;49.796;9.902;2022-12-29T17:26:00;10.60;98.40
9095;DHT22;4583;49.796;9.902;2022-12-29T17:36:02;10.70;98.50
9095;DHT22;4583;49.796;9.902;2022-12-29T17:46:05;10.60;98.50
9095;DHT22;4583;49.796;9.902;2022-12-29T17:56:08;10.50;98.70
9095;DHT22;4583;49.796;9.902;2022-12-29T18:06:11;10.50;98.90
9095;DHT22;4583;49.796;9.902;2022-12-29T18:16:13;10.50;99.00
9095;DHT22;4583;49.796;9.902;2022-12-29T18:26:22;10.50;98.90
9095;DHT22;4583;49.796;9.902;2022-12-29T18:36:28;10.50;98.80
9095;DHT22;4583;49.796;9.902;2022-12-29T18:46:30;10.60;98.80
9095;DHT22;4583;49.796;9.902;2022-12-29T18:56:32;10.60;98.80
9095;DHT22;4583;49.796;9.902;2022-12-29T19:06:33;10.60;98.80
9095;DHT22;4583;49.796;9.902;2022-12-29T19:16:35;10.60;99.00
9095;DHT22;4583;49.796;9.902;2022-12-29T19:26:39;10.70;99.00
9095;DHT22;4583;49.796;9.902;2022-12-29T19:36:41;10.80;99.20
9095;DHT22;4583;49.796;9.902;2022-12-29T19:46:43;10.70;99.40
9095;DHT22;4583;49.796;9.902;2022-12-29T19:56:45;10.80;99.50
9095;DHT22;4583;49.796;9.902;2022-12-29T20:06:47;10.80;99.50
9095;DHT22;4583;49.796;9.902;2022-12-29T20:16:48;10.70;99.50
9095;DHT22;4583;49.796;9.902;2022-12-29T20:27:12;10.70;99.40
9095;DHT22;4583;49.796;9.902;2022-12-29T20:37:14;10.70;99.40
9095;DHT22;4583;49.796;9.902;2022-12-29T20:47:16;10.60;99.50
9095;DHT22;4583;49.796;9.902;2022-12-29T20:57:17;10.60;99.80
9095;DHT22;4583;49.796;9.902;2022-12-29T21:07:19;10.60;99.60
9095;DHT22;4583;49.796;9.902;2022-12-29T21:17:21;10.60;99.90
9095;DHT22;4583;49.796;9.902;2022-12-29T21:27:22;10.60;99.80
9095;DHT22;4583;49.796;9.902;2022-12-29T21:37:24;10.50;99.70
9095;DHT22;4583;49.796;9.902;2022-12-29T21:47:26;10.60;99.90
9095;DHT22;4583;49.796;9.902;2022-12-29T21:57:47;10.60;99.90
9095;DHT22;4583;49.796;9.902;2022-12-29T22:08:07;10.60;99.90
9095;DHT22;4583;49.796;9.902;2022-12-29T22:18:28;10.60;99.90
9095;DHT22;4583;49.796;9.902;2022-12-29T22:28:30;10.60;99.90
9095;DHT22;4583;49.796;9.902;2022-12-29T22:38:31;10.50;99.90
9095;DHT22;4583;49.796;9.902;2022-12-29T22:48:34;10.60;99.90
9095;DHT22;4583;49.796;9.902;2022-12-29T22:58:40;10.50;99.90
9095;DHT22;4583;49.796;9.902;2022-12-29T23:08:42;10.50;99.90
9095;DHT22;4583;49.796;9.902;2022-12-29T23:18:45;10.60;99.90
9095;DHT22;4583;49.796;9.902;2022-12-29T23:28:48;10.50;99.90
9095;DHT22;4583;49.796;9.902;2022-12-29T23:38:56;10.50;99.90
9095;DHT22;4583;49.796;9.902;2022-12-29T23:48:58;10.50;99.90
9095;DHT22;4583;49.796;9.902;2022-12-29T23:59:03;10.50;99.90
